Ina, Illinois
Current Conditions -  °F | °C
As of 4:15 PM on Sunday 23 Nov 2014 (Local Time) from KMVN Reporting Station
Overcast Overcast  
Wind Chill: 54°   Ceiling: 500
Heat Index: 54°   Visibility: 4mi
Dew Point: 48°   Wind: 3mph
Humidity: 82%   Direction: 90°E
Pressure: 29.36"   Gusts: NA
Location:  38.15°N, 88.9°W
Report Text: KMVN 232215Z AUTO 09003KT 4SM OVC005 12/09 A2936 RMK AO1
Loading
Personal Weather Stations






























Interactive Weather Map New forecast layout! Learn more

10-Day Weather Forecast

Advertisements
Track Severe Weather on mobile